createdAt,value
2023-04-17T00:00:00.830Z,30.08
2023-04-17T00:00:51.037Z,31.87
2023-04-17T00:01:41.099Z,30.28
2023-04-17T00:02:31.187Z,35.13
2023-04-17T00:03:21.377Z,34.78
2023-04-17T00:04:11.749Z,38.11
2023-04-17T00:05:01.309Z,35.80
2023-04-17T00:05:51.321Z,34.61
2023-04-17T00:06:41.396Z,31.95
2023-04-17T00:07:31.673Z,31.88
2023-04-17T00:08:21.720Z,32.27
2023-04-17T00:09:12.104Z,34.15
2023-04-17T00:10:01.942Z,32.13
2023-04-17T00:11:04.059Z,32.86
2023-04-17T00:11:42.922Z,31.26
2023-04-17T00:12:31.996Z,33.14
2023-04-17T00:13:22.068Z,29.61
2023-04-17T00:14:12.174Z,31.80
2023-04-17T00:15:02.195Z,30.12
2023-04-17T00:15:52.263Z,33.38
2023-04-17T00:16:42.376Z,31.47
2023-04-17T00:17:32.441Z,31.79
2023-04-17T00:18:22.445Z,31.20
2023-04-17T00:19:12.697Z,30.72
2023-04-17T00:20:02.603Z,31.51
2023-04-17T00:20:52.650Z,28.78
2023-04-17T00:21:42.668Z,31.51
2023-04-17T00:22:32.757Z,30.68
2023-04-17T00:23:22.778Z,31.62
2023-04-17T00:24:12.894Z,29.50
2023-04-17T00:25:02.978Z,30.83
2023-04-17T00:25:53.030Z,31.90
2023-04-17T00:26:43.051Z,27.85
2023-04-17T00:27:33.123Z,27.06
2023-04-17T00:28:23.160Z,32.46
2023-04-17T00:29:13.366Z,31.26
2023-04-17T00:30:03.325Z,29.47
2023-04-17T00:30:53.340Z,29.14
2023-04-17T00:31:43.443Z,30.47
2023-04-17T00:32:33.489Z,26.83
2023-04-17T00:33:23.749Z,28.64
2023-04-17T00:34:13.824Z,28.55
2023-04-17T00:35:03.917Z,29.13
2023-04-17T00:35:53.975Z,30.04
2023-04-17T00:36:43.996Z,29.93
2023-04-17T00:37:34.041Z,29.66
2023-04-17T00:38:24.108Z,29.55
2023-04-17T00:39:14.349Z,32.51
2023-04-17T00:40:04.258Z,31.79
2023-04-17T00:40:54.298Z,35.73
2023-04-17T00:41:44.351Z,29.43
2023-04-17T00:42:34.388Z,35.05
2023-04-17T00:43:24.406Z,34.17
2023-04-17T00:44:14.488Z,30.99
2023-04-17T00:45:04.547Z,33.06
2023-04-17T00:45:54.728Z,33.52
2023-04-17T00:46:44.662Z,34.82
2023-04-17T00:47:34.780Z,34.95
2023-04-17T00:48:24.770Z,35.73
2023-04-17T00:49:14.852Z,38.60
2023-04-17T00:50:04.903Z,32.73
2023-04-17T00:50:54.944Z,35.81
2023-04-17T00:51:44.963Z,34.04
2023-04-17T00:52:35.038Z,34.04
2023-04-17T00:53:25.111Z,35.13
2023-04-17T00:54:15.179Z,32.92
2023-04-17T00:55:05.269Z,31.80
2023-04-17T00:55:55.299Z,31.72
2023-04-17T00:56:45.374Z,35.13
2023-04-17T00:57:35.446Z,32.60
2023-04-17T00:58:25.507Z,34.61
2023-04-17T00:59:15.591Z,34.54
2023-04-17T01:00:05.637Z,35.82
2023-04-17T01:00:55.696Z,35.33
2023-04-17T01:01:45.917Z,34.70
2023-04-17T01:02:36.168Z,34.07
2023-04-17T01:03:26.188Z,35.77
2023-04-17T01:04:16.191Z,36.98
2023-04-17T01:05:06.191Z,35.25
2023-04-17T01:05:56.223Z,36.29
2023-04-17T01:06:46.256Z,35.86
2023-04-17T01:07:36.332Z,32.14
2023-04-17T01:08:26.368Z,38.03
2023-04-17T01:09:16.442Z,35.03
2023-04-17T01:10:06.469Z,34.05
2023-04-17T01:10:56.510Z,34.58
2023-04-17T01:11:46.825Z,34.66
2023-04-17T01:12:36.897Z,33.43
2023-04-17T01:13:26.929Z,33.52
2023-04-17T01:14:17.007Z,32.25
2023-04-17T01:15:07.067Z,35.79
2023-04-17T01:15:58.027Z,32.65
2023-04-17T01:16:47.121Z,33.22
2023-04-17T01:17:37.273Z,35.58
2023-04-17T01:18:27.252Z,32.95
2023-04-17T01:19:17.322Z,29.71
2023-04-17T01:20:07.356Z,32.44
2023-04-17T01:20:57.392Z,33.93
2023-04-17T01:21:47.422Z,32.82
2023-04-17T01:22:37.538Z,31.57
2023-04-17T01:23:27.542Z,33.18
2023-04-17T01:24:17.604Z,30.41
2023-04-17T01:25:07.684Z,34.78
2023-04-17T01:25:57.734Z,34.68
2023-04-17T01:26:47.759Z,34.41
2023-04-17T01:27:38.071Z,33.75
2023-04-17T01:28:28.124Z,35.02
2023-04-17T01:29:18.207Z,36.46
2023-04-17T01:30:08.546Z,35.51
2023-04-17T01:30:58.624Z,34.24
2023-04-17T01:31:48.630Z,33.66
2023-04-17T01:32:38.795Z,35.74
2023-04-17T01:33:28.793Z,37.74
2023-04-17T01:34:18.816Z,36.01
2023-04-17T01:35:08.909Z,37.22
2023-04-17T01:35:58.942Z,35.80
2023-04-17T01:36:48.969Z,31.97
2023-04-17T01:37:39.063Z,37.51
2023-04-17T01:38:29.082Z,37.20
2023-04-17T01:39:19.160Z,33.63
2023-04-17T01:40:09.259Z,32.06
2023-04-17T01:40:59.278Z,37.84
2023-04-17T01:41:49.353Z,36.64
2023-04-17T01:42:39.419Z,41.28
2023-04-17T01:43:29.492Z,34.97
2023-04-17T01:44:19.562Z,36.56
2023-04-17T01:45:09.620Z,36.41
2023-04-17T01:45:59.864Z,39.98
2023-04-17T01:46:49.851Z,38.29
2023-04-17T01:47:40.033Z,37.56
2023-04-17T01:48:29.945Z,39.05
2023-04-17T01:49:20.040Z,36.21
2023-04-17T01:50:10.112Z,34.20
2023-04-17T01:51:00.148Z,35.48
2023-04-17T01:51:50.198Z,32.64
2023-04-17T01:52:40.250Z,33.23
2023-04-17T01:53:30.309Z,35.97
2023-04-17T01:54:20.386Z,36.80
2023-04-17T01:55:10.653Z,38.90
2023-04-17T01:56:00.696Z,35.56
2023-04-17T01:56:50.757Z,36.43
2023-04-17T01:57:40.847Z,33.96
2023-04-17T01:58:30.886Z,35.60
2023-04-17T01:59:20.935Z,34.48
2023-04-17T02:00:10.977Z,34.81
2023-04-17T02:01:01.009Z,31.17
2023-04-17T02:01:51.196Z,33.15
2023-04-17T02:02:41.335Z,33.72
2023-04-17T02:03:31.320Z,32.89
2023-04-17T02:04:21.431Z,34.79
2023-04-17T02:05:11.352Z,31.26
2023-04-17T02:06:01.362Z,33.18
2023-04-17T02:06:51.412Z,33.89
2023-04-17T02:07:41.439Z,37.14
2023-04-17T02:08:31.716Z,31.69
2023-04-17T02:09:21.793Z,31.95
2023-04-17T02:10:11.880Z,33.41
2023-04-17T02:11:02.198Z,28.20
2023-04-17T02:11:52.200Z,32.54
2023-04-17T02:12:42.285Z,30.15
2023-04-17T02:13:32.335Z,31.85
2023-04-17T02:14:22.424Z,31.07
2023-04-17T02:15:12.459Z,32.52
2023-04-17T02:16:02.542Z,30.80
2023-04-17T02:16:52.555Z,27.72
2023-04-17T02:17:42.652Z,32.04
2023-04-17T02:18:32.662Z,32.55
2023-04-17T02:19:22.736Z,29.01
2023-04-17T02:20:13.018Z,28.82
2023-04-17T02:21:03.038Z,28.94
2023-04-17T02:21:53.058Z,32.11
2023-04-17T02:22:43.157Z,29.47
2023-04-17T02:23:33.186Z,33.00
2023-04-17T02:24:23.254Z,28.54
2023-04-17T02:25:13.335Z,33.76
2023-04-17T02:26:03.400Z,31.30
2023-04-17T02:26:53.409Z,31.71
2023-04-17T02:27:43.476Z,28.22
2023-04-17T02:28:33.539Z,33.96
2023-04-17T02:29:23.878Z,31.47
2023-04-17T02:30:13.915Z,35.24
2023-04-17T02:31:04.040Z,32.24
2023-04-17T02:31:54.013Z,32.56
2023-04-17T02:32:44.126Z,33.80
2023-04-17T02:33:34.139Z,32.73
2023-04-17T02:34:24.171Z,29.05
2023-04-17T02:35:14.214Z,32.26
2023-04-17T02:36:04.288Z,31.57
2023-04-17T02:36:54.288Z,27.55
2023-04-17T02:37:44.368Z,30.42
2023-04-17T02:38:34.395Z,27.54
2023-04-17T02:39:24.468Z,29.47
2023-04-17T02:40:14.554Z,26.98
2023-04-17T02:41:04.608Z,30.41
2023-04-17T02:41:54.632Z,29.68
2023-04-17T02:42:44.680Z,30.73
2023-04-17T02:43:34.720Z,29.63
2023-04-17T02:44:24.778Z,30.49
2023-04-17T02:45:14.829Z,29.24
2023-04-17T02:46:04.862Z,31.92
2023-04-17T02:46:54.949Z,27.05
2023-04-17T02:47:45.081Z,31.32
2023-04-17T02:48:35.021Z,31.13
2023-04-17T02:49:25.140Z,32.30
2023-04-17T02:50:15.178Z,30.80
2023-04-17T02:51:05.213Z,29.17
2023-04-17T02:51:55.265Z,30.41
2023-04-17T02:52:45.335Z,26.95
2023-04-17T02:53:35.351Z,31.51
2023-04-17T02:54:25.425Z,31.53
2023-04-17T02:55:15.473Z,30.70
2023-04-17T02:56:05.512Z,28.01
2023-04-17T02:56:55.535Z,31.73
2023-04-17T02:57:45.619Z,30.97
2023-04-17T02:58:35.663Z,28.98
2023-04-17T02:59:25.691Z,31.54
2023-04-17T03:00:15.747Z,32.71
2023-04-17T03:01:05.785Z,32.94
2023-04-17T03:01:55.854Z,30.76
2023-04-17T03:02:46.092Z,27.67
2023-04-17T03:03:36.115Z,26.06
2023-04-17T03:04:26.026Z,30.82
2023-04-17T03:05:16.089Z,32.08
2023-04-17T03:06:06.132Z,30.32
2023-04-17T03:06:56.163Z,29.91
2023-04-17T03:07:46.313Z,31.88
2023-04-17T03:08:36.305Z,31.14
2023-04-17T03:09:26.342Z,34.11
2023-04-17T03:10:16.387Z,30.86
2023-04-17T03:11:06.471Z,30.30
2023-04-17T03:11:56.466Z,32.77
2023-04-17T03:12:46.519Z,31.73
2023-04-17T03:13:36.550Z,36.90
2023-04-17T03:14:26.608Z,32.83
2023-04-17T03:15:16.654Z,31.13
2023-04-17T03:16:06.829Z,27.95
2023-04-17T03:16:56.920Z,30.12
2023-04-17T03:17:46.930Z,33.26
2023-04-17T03:18:36.880Z,31.48
2023-04-17T03:19:26.957Z,29.36
2023-04-17T03:20:17.008Z,32.82
2023-04-17T03:21:07.053Z,28.90
2023-04-17T03:21:57.078Z,28.89
2023-04-17T03:22:47.158Z,31.63
2023-04-17T03:23:37.235Z,28.95
2023-04-17T03:24:27.278Z,31.99
2023-04-17T03:25:17.326Z,27.48
2023-04-17T03:26:07.364Z,32.17
2023-04-17T03:26:57.389Z,30.61
2023-04-17T03:27:47.472Z,28.28
2023-04-17T03:28:37.516Z,25.00
2023-04-17T03:29:27.636Z,33.49
2023-04-17T03:30:17.679Z,32.20
2023-04-17T03:31:07.722Z,33.96
2023-04-17T03:31:57.797Z,31.98
2023-04-17T03:32:47.847Z,34.24
2023-04-17T03:33:37.891Z,33.89
2023-04-17T03:34:27.886Z,38.18
2023-04-17T03:35:17.938Z,36.93
2023-04-17T03:36:08.069Z,41.40
2023-04-17T03:36:58.100Z,42.43
2023-04-17T03:37:48.204Z,45.32
2023-04-17T03:38:38.209Z,41.65
2023-04-17T03:39:28.317Z,48.53
2023-04-17T03:40:18.357Z,44.00
2023-04-17T03:41:08.390Z,44.42
2023-04-17T03:41:58.436Z,41.77
2023-04-17T03:42:48.493Z,43.87
2023-04-17T03:43:38.509Z,44.37
2023-04-17T03:44:28.582Z,41.47
2023-04-17T03:45:18.914Z,41.51
2023-04-17T03:46:09.039Z,38.86
2023-04-17T03:46:58.985Z,40.11
2023-04-17T03:47:49.071Z,38.76
2023-04-17T03:48:39.084Z,41.74
2023-04-17T03:49:29.160Z,41.33
2023-04-17T03:50:19.227Z,37.28
2023-04-17T03:51:09.246Z,38.89
2023-04-17T03:51:59.309Z,38.04
2023-04-17T03:52:49.382Z,41.19
2023-04-17T03:53:39.415Z,38.96
2023-04-17T03:54:29.489Z,38.15
2023-04-17T03:55:19.568Z,37.82
2023-04-17T03:56:09.576Z,40.84
2023-04-17T03:56:59.619Z,38.46
2023-04-17T03:57:49.729Z,38.60
2023-04-17T03:58:39.726Z,37.22
2023-04-17T03:59:29.804Z,44.10
2023-04-17T04:00:19.895Z,42.59
2023-04-17T04:01:10.192Z,43.05
2023-04-17T04:02:00.302Z,42.62
2023-04-17T04:02:50.499Z,42.22
2023-04-17T04:03:40.584Z,42.59
2023-04-17T04:04:30.587Z,43.00
2023-04-17T04:05:20.648Z,43.20
2023-04-17T04:06:10.546Z,45.58
2023-04-17T04:07:00.600Z,48.39
2023-04-17T04:07:50.634Z,50.06
2023-04-17T04:08:40.694Z,44.76
2023-04-17T04:09:30.717Z,44.11
2023-04-17T04:10:20.754Z,43.11
2023-04-17T04:11:10.825Z,47.52
2023-04-17T04:12:00.873Z,42.77
2023-04-17T04:12:50.952Z,41.98
2023-04-17T04:13:40.988Z,39.26
2023-04-17T04:14:31.034Z,45.26
2023-04-17T04:15:21.067Z,51.21
2023-04-17T04:16:11.124Z,53.21
2023-04-17T04:17:01.138Z,52.73
2023-04-17T04:17:51.267Z,47.50
2023-04-17T04:18:41.308Z,53.35
2023-04-17T04:19:31.373Z,50.07
2023-04-17T04:20:21.410Z,47.96
2023-04-17T04:21:11.455Z,49.00
2023-04-17T04:22:01.499Z,43.70
2023-04-17T04:22:51.570Z,41.59
2023-04-17T04:23:41.597Z,43.92
2023-04-17T04:24:31.678Z,42.72
2023-04-17T04:25:21.799Z,46.12
2023-04-17T04:26:11.802Z,46.06
2023-04-17T04:27:01.961Z,43.48
2023-04-17T04:27:51.901Z,45.28
2023-04-17T04:28:41.930Z,43.71
2023-04-17T04:29:31.999Z,47.10
2023-04-17T04:30:22.072Z,45.71
2023-04-17T04:31:12.182Z,47.86
2023-04-17T04:32:02.179Z,47.56
2023-04-17T04:32:52.276Z,42.57
2023-04-17T04:33:42.311Z,48.79
2023-04-17T04:34:32.403Z,46.50
2023-04-17T04:35:22.434Z,47.22
2023-04-17T04:36:12.482Z,48.54
2023-04-17T04:37:02.508Z,47.60
2023-04-17T04:37:52.590Z,43.68
2023-04-17T04:38:42.617Z,48.09
2023-04-17T04:39:32.688Z,48.84
2023-04-17T04:40:22.781Z,45.03
2023-04-17T04:41:13.077Z,45.80
2023-04-17T04:42:03.147Z,47.65
2023-04-17T04:42:53.344Z,45.56
2023-04-17T04:43:43.281Z,48.39
2023-04-17T04:44:33.356Z,45.21
2023-04-17T04:45:23.407Z,46.63
2023-04-17T04:46:13.512Z,46.62
2023-04-17T04:47:03.525Z,49.05
2023-04-17T04:47:53.631Z,44.83
2023-04-17T04:48:43.631Z,44.53
2023-04-17T04:49:33.704Z,46.37
2023-04-17T04:50:24.060Z,42.56
2023-04-17T04:51:14.090Z,48.03
2023-04-17T04:52:04.131Z,48.15
2023-04-17T04:52:54.177Z,46.01
2023-04-17T04:53:44.208Z,48.15
2023-04-17T04:54:34.284Z,46.59
2023-04-17T04:55:24.450Z,46.40
2023-04-17T04:56:14.374Z,47.45
2023-04-17T04:57:04.443Z,46.30
2023-04-17T04:57:54.524Z,48.72
2023-04-17T04:58:44.579Z,47.40
2023-04-17T04:59:35.884Z,42.48
2023-04-17T05:00:24.975Z,52.75
2023-04-17T05:01:15.181Z,49.21
2023-04-17T05:02:05.131Z,50.94
2023-04-17T05:02:55.289Z,46.76
2023-04-17T05:03:45.272Z,48.07
2023-04-17T05:04:35.264Z,45.93
2023-04-17T05:05:25.289Z,50.89
2023-04-17T05:06:15.419Z,50.01
2023-04-17T05:07:05.471Z,46.47
2023-04-17T05:07:55.563Z,50.31
2023-04-17T05:08:45.583Z,45.60
2023-04-17T05:09:35.650Z,48.16
2023-04-17T05:10:27.060Z,49.37
2023-04-17T05:11:15.814Z,51.46
2023-04-17T05:12:05.842Z,44.21
2023-04-17T05:12:55.929Z,47.87
2023-04-17T05:13:45.956Z,47.96
2023-04-17T05:14:36.074Z,42.41
2023-04-17T05:15:26.088Z,44.13
2023-04-17T05:16:16.169Z,46.45
2023-04-17T05:17:06.158Z,43.81
2023-04-17T05:17:56.282Z,48.87
2023-04-17T05:18:46.269Z,45.56
2023-04-17T05:19:36.352Z,46.80
2023-04-17T05:20:26.433Z,45.49
2023-04-17T05:21:16.478Z,48.12
2023-04-17T05:22:06.503Z,47.59
2023-04-17T05:22:56.550Z,59.87
2023-04-17T05:23:46.578Z,57.70
2023-04-17T05:24:36.665Z,60.03
2023-04-17T05:25:26.707Z,60.06
2023-04-17T05:26:16.793Z,56.42
2023-04-17T05:27:06.841Z,55.49
2023-04-17T05:27:56.885Z,53.11
2023-04-17T05:28:46.922Z,53.66
2023-04-17T05:29:36.998Z,55.18
2023-04-17T05:30:27.091Z,55.64
2023-04-17T05:31:17.178Z,50.31
2023-04-17T05:32:07.190Z,49.46
2023-04-17T05:32:57.261Z,53.74
2023-04-17T05:33:47.256Z,51.42
2023-04-17T05:34:37.296Z,54.14
2023-04-17T05:35:27.347Z,52.99
2023-04-17T05:36:17.395Z,55.97
2023-04-17T05:37:07.420Z,56.36
2023-04-17T05:37:57.506Z,54.52
2023-04-17T05:38:47.547Z,51.43
2023-04-17T05:39:37.617Z,52.65
2023-04-17T05:40:27.697Z,52.14
2023-04-17T05:41:17.722Z,53.66
2023-04-17T05:42:07.767Z,52.14
2023-04-17T05:42:57.804Z,49.27
2023-04-17T05:43:47.871Z,52.46
2023-04-17T05:44:37.892Z,49.54
2023-04-17T05:45:27.977Z,52.86
2023-04-17T05:46:18.125Z,49.43
2023-04-17T05:47:08.097Z,50.92
2023-04-17T05:47:58.221Z,49.03
2023-04-17T05:48:48.167Z,48.14
2023-04-17T05:49:38.248Z,52.15
2023-04-17T05:50:28.306Z,50.71
2023-04-17T05:51:18.346Z,51.60
2023-04-17T05:52:08.373Z,53.46
2023-04-17T05:52:58.414Z,53.55
2023-04-17T05:53:48.454Z,49.70
2023-04-17T05:54:38.550Z,52.49
2023-04-17T05:55:28.582Z,51.85
2023-04-17T05:56:18.621Z,52.33
2023-04-17T05:57:08.654Z,54.49
2023-04-17T05:57:58.733Z,53.00
2023-04-17T05:58:48.775Z,51.63
2023-04-17T05:59:38.820Z,51.36
2023-04-17T06:00:28.965Z,52.88
2023-04-17T06:01:18.890Z,56.43
2023-04-17T06:02:09.011Z,52.78
2023-04-17T06:02:59.230Z,54.82
2023-04-17T06:03:49.385Z,55.44
2023-04-17T06:04:39.266Z,56.22
2023-04-17T06:05:29.397Z,62.06
2023-04-17T06:06:19.387Z,59.98
2023-04-17T06:07:09.380Z,56.53
2023-04-17T06:07:59.424Z,61.74
2023-04-17T06:08:49.454Z,63.04
2023-04-17T06:09:39.534Z,61.49
2023-04-17T06:10:29.582Z,64.57
2023-04-17T06:11:19.620Z,68.08
2023-04-17T06:12:09.689Z,68.49
2023-04-17T06:12:59.770Z,67.15
2023-04-17T06:13:49.800Z,63.64
2023-04-17T06:14:39.875Z,64.30
2023-04-17T06:15:30.183Z,65.28
2023-04-17T06:16:20.238Z,64.66
2023-04-17T06:17:10.362Z,61.60
2023-04-17T06:18:00.398Z,68.04
2023-04-17T06:18:50.370Z,65.11
2023-04-17T06:19:40.418Z,64.59
2023-04-17T06:20:30.484Z,68.22
2023-04-17T06:21:20.513Z,68.59
2023-04-17T06:22:10.637Z,64.50
2023-04-17T06:23:00.682Z,68.40
2023-04-17T06:23:50.722Z,70.75
2023-04-17T06:24:40.802Z,71.54
2023-04-17T06:25:30.863Z,71.22
2023-04-17T06:26:20.895Z,73.27
2023-04-17T06:27:10.918Z,71.29
2023-04-17T06:28:01.002Z,74.23
2023-04-17T06:28:51.034Z,73.88
2023-04-17T06:29:41.113Z,77.52
2023-04-17T06:30:31.164Z,73.65
2023-04-17T06:31:21.231Z,75.05
2023-04-17T06:32:11.268Z,70.60
2023-04-17T06:33:01.418Z,72.14
2023-04-17T06:33:51.488Z,72.43
2023-04-17T06:34:52.540Z,70.26
2023-04-17T06:35:32.534Z,70.29
2023-04-17T06:36:21.580Z,70.41
2023-04-17T06:37:11.634Z,71.20
2023-04-17T06:38:01.757Z,71.36
2023-04-17T06:38:51.763Z,70.21
2023-04-17T06:39:41.835Z,73.88
2023-04-17T06:40:31.881Z,74.53
2023-04-17T06:41:22.090Z,71.94
2023-04-17T06:42:12.128Z,72.01
2023-04-17T06:43:02.204Z,73.97
2023-04-17T06:43:52.274Z,71.57
2023-04-17T06:44:42.336Z,72.72
2023-04-17T06:45:32.371Z,75.19
2023-04-17T06:46:22.481Z,73.52
2023-04-17T06:47:12.468Z,70.13
2023-04-17T06:48:02.558Z,71.00
2023-04-17T06:48:52.576Z,71.19
2023-04-17T06:49:42.672Z,72.97
2023-04-17T06:50:32.934Z,75.30
2023-04-17T06:51:23.024Z,72.51
2023-04-17T06:52:13.069Z,72.51
2023-04-17T06:53:03.150Z,74.34
2023-04-17T06:53:53.186Z,71.38
2023-04-17T06:54:43.226Z,73.82
2023-04-17T06:55:33.262Z,71.23
2023-04-17T06:56:23.315Z,74.17
2023-04-17T06:57:13.388Z,76.66
2023-04-17T06:58:03.477Z,74.63
2023-04-17T06:58:53.511Z,72.24
2023-04-17T06:59:43.543Z,76.24
2023-04-17T07:00:33.576Z,72.93
2023-04-17T07:01:23.721Z,75.15
2023-04-17T07:02:13.867Z,76.04
2023-04-17T07:03:03.805Z,73.92
2023-04-17T07:03:53.863Z,71.02
2023-04-17T07:04:43.917Z,71.88
2023-04-17T07:05:33.985Z,73.31
2023-04-17T07:06:24.052Z,75.29
2023-04-17T07:07:14.058Z,73.33
2023-04-17T07:08:04.153Z,75.37
2023-04-17T07:08:55.627Z,76.04
2023-04-17T07:09:44.310Z,73.43
2023-04-17T07:10:34.343Z,75.85
2023-04-17T07:11:24.440Z,70.69
2023-04-17T07:12:14.459Z,74.90
2023-04-17T07:13:04.543Z,75.10
2023-04-17T07:13:54.552Z,75.30
2023-04-17T07:14:44.599Z,77.75
2023-04-17T07:15:34.699Z,74.17
2023-04-17T07:16:24.857Z,74.01
2023-04-17T07:17:14.784Z,75.03
2023-04-17T07:18:04.890Z,76.70
2023-04-17T07:18:54.872Z,76.57
2023-04-17T07:19:44.952Z,76.04
2023-04-17T07:20:35.019Z,75.07
2023-04-17T07:21:25.262Z,72.54
2023-04-17T07:22:15.160Z,73.39
2023-04-17T07:23:05.205Z,72.34
2023-04-17T07:23:55.238Z,75.39
2023-04-17T07:24:45.269Z,75.00
2023-04-17T07:25:35.563Z,73.74
2023-04-17T07:26:25.674Z,71.70
2023-04-17T07:27:15.685Z,74.28
2023-04-17T07:28:05.768Z,72.91
2023-04-17T07:28:55.797Z,73.43
2023-04-17T07:29:45.874Z,75.47
2023-04-17T07:30:35.907Z,74.12
2023-04-17T07:31:26.011Z,77.81
2023-04-17T07:32:16.108Z,73.77
2023-04-17T07:33:06.117Z,73.76
2023-04-17T07:33:56.135Z,75.14
2023-04-17T07:34:46.181Z,71.62
2023-04-17T07:35:36.205Z,72.29
2023-04-17T07:36:26.309Z,73.38
2023-04-17T07:37:16.353Z,72.89
2023-04-17T07:38:06.458Z,73.08
2023-04-17T07:38:56.472Z,71.50
2023-04-17T07:39:46.558Z,73.37
2023-04-17T07:40:36.621Z,77.03
2023-04-17T07:41:26.687Z,75.93
2023-04-17T07:42:16.703Z,72.52
2023-04-17T07:43:06.786Z,74.09
2023-04-17T07:43:58.985Z,72.19
2023-04-17T07:44:46.947Z,72.19
2023-04-17T07:45:38.140Z,72.32
2023-04-17T07:46:27.120Z,72.55
2023-04-17T07:47:17.192Z,71.12
2023-04-17T07:48:07.185Z,73.32
2023-04-17T07:48:57.204Z,67.54
2023-04-17T07:49:47.250Z,71.61
2023-04-17T07:50:37.342Z,71.82
2023-04-17T07:51:27.374Z,73.47
2023-04-17T07:52:17.475Z,72.75
2023-04-17T07:53:07.567Z,71.56
2023-04-17T07:53:57.560Z,72.04
2023-04-17T07:54:47.670Z,72.28
2023-04-17T07:55:37.673Z,71.96
2023-04-17T07:56:27.782Z,68.79
2023-04-17T07:57:17.827Z,75.36
2023-04-17T07:58:08.005Z,69.85
2023-04-17T07:58:57.956Z,72.14
2023-04-17T07:59:48.003Z,76.54
2023-04-17T08:00:38.026Z,71.12
2023-04-17T08:01:28.375Z,73.95
2023-04-17T08:02:19.529Z,75.06
2023-04-17T08:03:08.748Z,73.06
2023-04-17T08:03:59.138Z,73.48
2023-04-17T08:04:48.747Z,73.21
2023-04-17T08:05:38.677Z,73.48
2023-04-17T08:06:28.783Z,76.81
2023-04-17T08:07:18.807Z,75.00
2023-04-17T08:08:08.890Z,75.35
2023-04-17T08:08:58.943Z,75.07
2023-04-17T08:09:48.953Z,69.63
2023-04-17T08:10:39.036Z,73.36
2023-04-17T08:11:29.124Z,70.68
2023-04-17T08:12:19.160Z,72.65
2023-04-17T08:13:09.207Z,73.35
2023-04-17T08:13:59.250Z,72.38
2023-04-17T08:14:49.289Z,72.67
2023-04-17T08:15:39.603Z,72.40
2023-04-17T08:16:29.454Z,73.06
2023-04-17T08:17:19.500Z,75.45
2023-04-17T08:18:09.688Z,74.39
2023-04-17T08:18:59.654Z,74.47
2023-04-17T08:19:49.718Z,68.98
2023-04-17T08:20:39.741Z,71.65
2023-04-17T08:21:29.848Z,75.63
2023-04-17T08:22:19.877Z,69.89
2023-04-17T08:23:09.931Z,72.11
2023-04-17T08:23:59.956Z,71.39
2023-04-17T08:24:50.040Z,75.11
2023-04-17T08:25:40.043Z,74.08
2023-04-17T08:26:30.151Z,73.36
2023-04-17T08:27:20.140Z,68.95
2023-04-17T08:28:10.227Z,72.81
2023-04-17T08:29:00.252Z,74.53
2023-04-17T08:29:50.332Z,74.78
2023-04-17T08:30:40.394Z,74.52
2023-04-17T08:31:30.449Z,74.60
2023-04-17T08:32:20.503Z,73.46
2023-04-17T08:33:10.550Z,70.70
2023-04-17T08:34:13.054Z,70.87
2023-04-17T08:34:50.663Z,70.87
2023-04-17T08:35:40.724Z,68.29
2023-04-17T08:36:30.812Z,71.36
2023-04-17T08:37:20.848Z,70.43
2023-04-17T08:38:10.916Z,73.26
2023-04-17T08:39:00.964Z,71.50
2023-04-17T08:39:51.042Z,69.88
2023-04-17T08:40:41.108Z,70.74
2023-04-17T08:41:31.394Z,69.82
2023-04-17T08:42:21.418Z,67.88
2023-04-17T08:43:11.530Z,68.83
2023-04-17T08:44:01.856Z,71.79
2023-04-17T08:44:51.870Z,69.88
2023-04-17T08:45:41.922Z,73.94
2023-04-17T08:46:32.058Z,70.86
2023-04-17T08:47:22.132Z,70.53
2023-04-17T08:48:12.060Z,71.03
2023-04-17T08:49:02.110Z,74.41
2023-04-17T08:49:52.160Z,69.31
2023-04-17T08:50:42.318Z,75.29
2023-04-17T08:51:32.424Z,71.07
2023-04-17T08:52:22.450Z,72.33
2023-04-17T08:53:12.522Z,72.15
2023-04-17T08:54:02.587Z,71.04
2023-04-17T08:54:52.665Z,73.98
2023-04-17T08:55:42.733Z,69.58
2023-04-17T08:56:32.859Z,71.62
2023-04-17T08:57:22.857Z,70.64
2023-04-17T08:58:12.920Z,69.84
2023-04-17T08:59:02.962Z,74.33
2023-04-17T08:59:53.071Z,70.13
2023-04-17T09:00:43.096Z,69.11
2023-04-17T09:01:33.259Z,71.65
2023-04-17T09:02:24.191Z,70.78
2023-04-17T09:03:13.614Z,70.83
2023-04-17T09:04:03.530Z,71.13
2023-04-17T09:04:53.534Z,71.47
2023-04-17T09:05:43.715Z,71.80
2023-04-17T09:06:33.503Z,72.52
2023-04-17T09:07:23.541Z,71.84
2023-04-17T09:08:13.610Z,73.78
2023-04-17T09:09:03.810Z,73.58
2023-04-17T09:09:53.946Z,70.25
2023-04-17T09:10:43.936Z,68.88
2023-04-17T09:11:34.031Z,71.35
2023-04-17T09:12:24.164Z,69.81
2023-04-17T09:13:14.109Z,70.89
2023-04-17T09:14:04.174Z,73.18
2023-04-17T09:14:54.232Z,70.57
2023-04-17T09:15:44.388Z,73.49
2023-04-17T09:16:34.481Z,71.65
2023-04-17T09:17:24.434Z,71.10
2023-04-17T09:18:14.583Z,70.08
2023-04-17T09:19:04.577Z,71.70
2023-04-17T09:19:54.662Z,72.58
2023-04-17T09:20:44.701Z,69.08
2023-04-17T09:21:34.771Z,70.75
2023-04-17T09:22:24.850Z,72.17
2023-04-17T09:23:14.894Z,74.46
2023-04-17T09:24:04.926Z,72.63
2023-04-17T09:24:56.733Z,72.07
2023-04-17T09:25:45.017Z,72.09
2023-04-17T09:26:35.120Z,72.16
2023-04-17T09:27:25.137Z,72.24
2023-04-17T09:28:15.242Z,69.64
2023-04-17T09:29:05.269Z,72.85
2023-04-17T09:29:55.333Z,72.25
2023-04-17T09:30:45.369Z,75.52
2023-04-17T09:31:35.491Z,70.69
2023-04-17T09:32:25.512Z,72.27
2023-04-17T09:33:15.570Z,70.95
2023-04-17T09:34:05.826Z,75.23
2023-04-17T09:34:55.910Z,72.63
2023-04-17T09:35:45.945Z,71.32
2023-04-17T09:36:36.047Z,69.62
2023-04-17T09:37:26.082Z,75.25
2023-04-17T09:38:16.167Z,67.60
2023-04-17T09:39:06.236Z,72.92
2023-04-17T09:39:56.280Z,71.39
2023-04-17T09:40:46.371Z,73.73
2023-04-17T09:41:36.471Z,73.02
2023-04-17T09:42:26.475Z,70.96
2023-04-17T09:43:16.680Z,74.18
2023-04-17T09:44:06.636Z,70.63
2023-04-17T09:44:56.685Z,69.42
2023-04-17T09:45:46.757Z,70.00
2023-04-17T09:46:36.827Z,71.19
2023-04-17T09:47:26.862Z,72.78
2023-04-17T09:48:16.898Z,72.82
2023-04-17T09:49:06.926Z,73.27
2023-04-17T09:49:57.025Z,70.62
2023-04-17T09:50:47.061Z,69.91
2023-04-17T09:51:37.146Z,66.63
2023-04-17T09:52:27.140Z,70.65
2023-04-17T09:53:17.208Z,70.42
2023-04-17T09:54:07.292Z,72.81
2023-04-17T09:54:57.591Z,69.18
2023-04-17T09:55:47.609Z,72.45
2023-04-17T09:56:37.684Z,68.99
2023-04-17T09:57:27.703Z,72.32
2023-04-17T09:58:17.771Z,71.19
2023-04-17T09:59:07.812Z,69.04
2023-04-17T09:59:57.911Z,70.57
2023-04-17T10:00:47.949Z,70.62
2023-04-17T10:01:38.143Z,73.03
2023-04-17T10:02:28.284Z,73.11
2023-04-17T10:03:18.367Z,69.20
2023-04-17T10:04:08.611Z,69.92
2023-04-17T10:04:58.228Z,68.39
2023-04-17T10:05:48.254Z,71.78
2023-04-17T10:06:38.330Z,71.65
2023-04-17T10:07:28.375Z,73.61
2023-04-17T10:08:18.452Z,69.78
2023-04-17T10:09:08.506Z,72.63
2023-04-17T10:09:58.528Z,72.04
2023-04-17T10:10:48.573Z,67.52
2023-04-17T10:11:38.648Z,70.46
2023-04-17T10:12:28.683Z,73.76
2023-04-17T10:13:18.719Z,69.76
2023-04-17T10:14:08.794Z,68.76
2023-04-17T10:14:58.795Z,72.95
2023-04-17T10:15:48.850Z,73.72
2023-04-17T10:16:39.035Z,70.30
2023-04-17T10:17:29.138Z,64.39
2023-04-17T10:18:19.071Z,66.22
2023-04-17T10:19:09.075Z,73.30
2023-04-17T10:19:59.142Z,69.00
2023-04-17T10:20:49.353Z,68.21
2023-04-17T10:21:39.431Z,68.39
2023-04-17T10:22:29.464Z,71.11
2023-04-17T10:23:19.515Z,67.90
2023-04-17T10:24:09.745Z,70.85
2023-04-17T10:24:59.647Z,69.58
2023-04-17T10:25:49.748Z,69.98
2023-04-17T10:26:39.798Z,71.70
2023-04-17T10:27:29.819Z,71.79
2023-04-17T10:28:19.905Z,70.63
2023-04-17T10:29:09.931Z,66.80
2023-04-17T10:30:00.231Z,69.11
2023-04-17T10:30:50.293Z,72.72
2023-04-17T10:31:40.400Z,69.62
2023-04-17T10:32:30.692Z,71.18
2023-04-17T10:33:20.755Z,70.03
2023-04-17T10:34:10.906Z,69.90
2023-04-17T10:35:00.921Z,71.80
2023-04-17T10:35:50.864Z,74.40
2023-04-17T10:36:40.975Z,70.77
2023-04-17T10:37:30.993Z,67.70
2023-04-17T10:38:21.067Z,67.67
2023-04-17T10:39:11.365Z,71.74
2023-04-17T10:40:01.241Z,68.31
2023-04-17T10:40:51.283Z,73.16
2023-04-17T10:41:41.352Z,75.65
2023-04-17T10:42:31.369Z,74.21
2023-04-17T10:43:21.458Z,72.59
2023-04-17T10:44:11.516Z,72.59